sensor_id;sensor_type;location;lat;lon;timestamp;temperature;humidity
7970;DHT22;4030;52.362;9.206;2023-08-30T00:00:41;18.80;73.70
7970;DHT22;4030;52.362;9.206;2023-08-30T00:03:07;18.70;73.70
7970;DHT22;4030;52.362;9.206;2023-08-30T00:05:33;18.70;73.70
7970;DHT22;4030;52.362;9.206;2023-08-30T00:07:59;18.80;73.80
7970;DHT22;4030;52.362;9.206;2023-08-30T00:10:25;18.70;73.70
7970;DHT22;4030;52.362;9.206;2023-08-30T00:12:50;18.70;73.80
7970;DHT22;4030;52.362;9.206;2023-08-30T00:15:16;18.60;73.70
7970;DHT22;4030;52.362;9.206;2023-08-30T00:17:42;18.60;73.70
7970;DHT22;4030;52.362;9.206;2023-08-30T00:20:09;18.50;73.70
7970;DHT22;4030;52.362;9.206;2023-08-30T00:22:35;18.60;73.90
7970;DHT22;4030;52.362;9.206;2023-08-30T00:25:01;18.50;73.70
7970;DHT22;4030;52.362;9.206;2023-08-30T00:27:27;18.60;73.90
7970;DHT22;4030;52.362;9.206;2023-08-30T00:29:53;19.40;74.80
7970;DHT22;4030;52.362;9.206;2023-08-30T00:32:18;18.40;73.70
7970;DHT22;4030;52.362;9.206;2023-08-30T00:34:44;18.40;73.70
7970;DHT22;4030;52.362;9.206;2023-08-30T00:37:10;18.40;73.70
7970;DHT22;4030;52.362;9.206;2023-08-30T00:39:39;18.40;73.80
7970;DHT22;4030;52.362;9.206;2023-08-30T00:42:05;18.30;73.80
7970;DHT22;4030;52.362;9.206;2023-08-30T00:44:35;18.30;74.70
7970;DHT22;4030;52.362;9.206;2023-08-30T00:47:01;18.30;73.90
7970;DHT22;4030;52.362;9.206;2023-08-30T00:49:29;18.30;73.90
7970;DHT22;4030;52.362;9.206;2023-08-30T00:51:57;18.30;74.00
7970;DHT22;4030;52.362;9.206;2023-08-30T00:54:24;18.20;74.00
7970;DHT22;4030;52.362;9.206;2023-08-30T00:56:50;18.20;74.00
7970;DHT22;4030;52.362;9.206;2023-08-30T00:59:16;18.20;74.00
7970;DHT22;4030;52.362;9.206;2023-08-30T01:01:42;18.20;74.00
7970;DHT22;4030;52.362;9.206;2023-08-30T01:04:08;18.10;73.90
7970;DHT22;4030;52.362;9.206;2023-08-30T01:06:34;18.10;74.00
7970;DHT22;4030;52.362;9.206;2023-08-30T01:09:03;18.10;74.10
7970;DHT22;4030;52.362;9.206;2023-08-30T01:11:39;18.10;74.20
7970;DHT22;4030;52.362;9.206;2023-08-30T01:14:15;18.10;74.20
7970;DHT22;4030;52.362;9.206;2023-08-30T01:16:44;18.10;74.30
7970;DHT22;4030;52.362;9.206;2023-08-30T01:19:47;18.00;74.20
7970;DHT22;4030;52.362;9.206;2023-08-30T01:28:22;18.00;74.40
7970;DHT22;4030;52.362;9.206;2023-08-30T01:30:49;18.00;74.40
7970;DHT22;4030;52.362;9.206;2023-08-30T01:33:16;18.00;74.50
7970;DHT22;4030;52.362;9.206;2023-08-30T01:35:45;18.00;74.60
7970;DHT22;4030;52.362;9.206;2023-08-30T01:38:11;18.00;74.60
7970;DHT22;4030;52.362;9.206;2023-08-30T01:40:40;17.90;74.60
7970;DHT22;4030;52.362;9.206;2023-08-30T01:43:07;18.00;74.80
7970;DHT22;4030;52.362;9.206;2023-08-30T01:45:42;18.10;74.90
7970;DHT22;4030;52.362;9.206;2023-08-30T01:48:14;18.00;74.90
7970;DHT22;4030;52.362;9.206;2023-08-30T01:50:42;18.00;74.90
7970;DHT22;4030;52.362;9.206;2023-08-30T01:53:11;18.00;75.00
7970;DHT22;4030;52.362;9.206;2023-08-30T01:55:37;17.90;74.90
7970;DHT22;4030;52.362;9.206;2023-08-30T01:58:04;17.90;74.90
7970;DHT22;4030;52.362;9.206;2023-08-30T02:00:30;17.90;75.00
7970;DHT22;4030;52.362;9.206;2023-08-30T02:02:56;17.90;75.00
7970;DHT22;4030;52.362;9.206;2023-08-30T02:05:22;17.90;74.90
7970;DHT22;4030;52.362;9.206;2023-08-30T02:07:58;17.90;75.00
7970;DHT22;4030;52.362;9.206;2023-08-30T02:10:34;17.90;75.00
7970;DHT22;4030;52.362;9.206;2023-08-30T02:13:02;17.90;75.00
7970;DHT22;4030;52.362;9.206;2023-08-30T02:15:30;17.80;74.90
7970;DHT22;4030;52.362;9.206;2023-08-30T02:17:57;17.80;74.90
7970;DHT22;4030;52.362;9.206;2023-08-30T02:20:24;17.80;75.00
7970;DHT22;4030;52.362;9.206;2023-08-30T02:22:50;17.80;75.00
7970;DHT22;4030;52.362;9.206;2023-08-30T02:25:15;17.80;75.00
7970;DHT22;4030;52.362;9.206;2023-08-30T02:27:41;17.70;75.00
7970;DHT22;4030;52.362;9.206;2023-08-30T02:30:07;17.70;75.00
7970;DHT22;4030;52.362;9.206;2023-08-30T02:32:33;17.70;75.10
7970;DHT22;4030;52.362;9.206;2023-08-30T02:34:59;17.80;75.10
7970;DHT22;4030;52.362;9.206;2023-08-30T02:37:25;17.70;75.10
7970;DHT22;4030;52.362;9.206;2023-08-30T02:39:50;17.70;75.10
7970;DHT22;4030;52.362;9.206;2023-08-30T02:42:16;17.60;75.10
7970;DHT22;4030;52.362;9.206;2023-08-30T02:44:42;17.60;75.00
7970;DHT22;4030;52.362;9.206;2023-08-30T02:47:08;17.60;75.10
7970;DHT22;4030;52.362;9.206;2023-08-30T02:49:34;17.60;75.10
7970;DHT22;4030;52.362;9.206;2023-08-30T02:51:59;17.60;75.20
7970;DHT22;4030;52.362;9.206;2023-08-30T02:54:25;17.60;75.20
7970;DHT22;4030;52.362;9.206;2023-08-30T02:56:51;17.50;75.10
7970;DHT22;4030;52.362;9.206;2023-08-30T02:59:16;17.50;75.10
7970;DHT22;4030;52.362;9.206;2023-08-30T03:01:42;17.40;75.10
7970;DHT22;4030;52.362;9.206;2023-08-30T03:04:08;17.50;75.20
7970;DHT22;4030;52.362;9.206;2023-08-30T03:06:35;17.50;75.20
7970;DHT22;4030;52.362;9.206;2023-08-30T03:09:01;17.50;75.30
7970;DHT22;4030;52.362;9.206;2023-08-30T03:11:31;17.50;75.30
7970;DHT22;4030;52.362;9.206;2023-08-30T03:13:57;17.40;75.20
7970;DHT22;4030;52.362;9.206;2023-08-30T03:16:23;17.50;75.40
7970;DHT22;4030;52.362;9.206;2023-08-30T03:18:50;17.40;75.40
7970;DHT22;4030;52.362;9.206;2023-08-30T03:21:16;17.40;75.40
7970;DHT22;4030;52.362;9.206;2023-08-30T03:23:42;17.40;75.40
7970;DHT22;4030;52.362;9.206;2023-08-30T03:26:12;17.40;75.50
7970;DHT22;4030;52.362;9.206;2023-08-30T03:28:40;17.40;75.60
7970;DHT22;4030;52.362;9.206;2023-08-30T03:31:19;17.40;75.70
7970;DHT22;4030;52.362;9.206;2023-08-30T03:33:47;17.40;75.70
7970;DHT22;4030;52.362;9.206;2023-08-30T03:36:15;17.30;75.70
7970;DHT22;4030;52.362;9.206;2023-08-30T03:38:41;17.30;75.70
7970;DHT22;4030;52.362;9.206;2023-08-30T03:41:09;19.30;77.80
7970;DHT22;4030;52.362;9.206;2023-08-30T03:43:35;17.30;75.80
7970;DHT22;4030;52.362;9.206;2023-08-30T03:46:01;17.30;75.90
7970;DHT22;4030;52.362;9.206;2023-08-30T03:48:31;17.30;75.90
7970;DHT22;4030;52.362;9.206;2023-08-30T03:50:57;17.30;75.90
7970;DHT22;4030;52.362;9.206;2023-08-30T03:53:24;17.30;76.00
7970;DHT22;4030;52.362;9.206;2023-08-30T03:55:50;17.30;75.90
7970;DHT22;4030;52.362;9.206;2023-08-30T03:58:17;17.30;76.00
7970;DHT22;4030;52.362;9.206;2023-08-30T04:00:43;17.30;76.10
7970;DHT22;4030;52.362;9.206;2023-08-30T04:03:10;17.30;76.10
7970;DHT22;4030;52.362;9.206;2023-08-30T04:05:36;17.30;76.30
7970;DHT22;4030;52.362;9.206;2023-08-30T04:08:04;17.30;76.30
7970;DHT22;4030;52.362;9.206;2023-08-30T04:10:38;17.30;76.20
7970;DHT22;4030;52.362;9.206;2023-08-30T04:13:05;17.30;76.30
7970;DHT22;4030;52.362;9.206;2023-08-30T04:15:35;17.30;76.30
7970;DHT22;4030;52.362;9.206;2023-08-30T04:18:02;17.30;76.30
7970;DHT22;4030;52.362;9.206;2023-08-30T04:20:29;17.30;76.40
7970;DHT22;4030;52.362;9.206;2023-08-30T04:22:55;17.20;76.20
7970;DHT22;4030;52.362;9.206;2023-08-30T04:25:22;17.20;76.30
7970;DHT22;4030;52.362;9.206;2023-08-30T04:27:48;17.20;76.30
7970;DHT22;4030;52.362;9.206;2023-08-30T04:30:14;17.20;76.40
7970;DHT22;4030;52.362;9.206;2023-08-30T04:32:40;17.20;76.40
7970;DHT22;4030;52.362;9.206;2023-08-30T04:35:07;17.20;76.50
7970;DHT22;4030;52.362;9.206;2023-08-30T04:37:32;17.20;76.50
7970;DHT22;4030;52.362;9.206;2023-08-30T04:39:58;17.20;76.60
7970;DHT22;4030;52.362;9.206;2023-08-30T04:42:24;17.20;76.60
7970;DHT22;4030;52.362;9.206;2023-08-30T04:44:51;17.20;76.60
7970;DHT22;4030;52.362;9.206;2023-08-30T04:47:17;17.20;76.70
7970;DHT22;4030;52.362;9.206;2023-08-30T04:49:43;17.20;76.70
7970;DHT22;4030;52.362;9.206;2023-08-30T04:52:09;17.30;76.80
7970;DHT22;4030;52.362;9.206;2023-08-30T04:54:34;17.30;76.90
7970;DHT22;4030;52.362;9.206;2023-08-30T04:57:00;17.20;77.00
7970;DHT22;4030;52.362;9.206;2023-08-30T04:59:26;17.30;77.00
7970;DHT22;4030;52.362;9.206;2023-08-30T05:01:51;17.30;77.00
7970;DHT22;4030;52.362;9.206;2023-08-30T05:04:17;17.20;76.90
7970;DHT22;4030;52.362;9.206;2023-08-30T05:06:43;17.30;77.00
7970;DHT22;4030;52.362;9.206;2023-08-30T05:09:09;17.30;77.10
7970;DHT22;4030;52.362;9.206;2023-08-30T05:11:34;17.30;77.10
7970;DHT22;4030;52.362;9.206;2023-08-30T05:14:00;17.30;77.10
7970;DHT22;4030;52.362;9.206;2023-08-30T05:16:26;17.30;77.10
7970;DHT22;4030;52.362;9.206;2023-08-30T05:18:52;17.40;77.30
7970;DHT22;4030;52.362;9.206;2023-08-30T05:21:17;17.30;77.20
7970;DHT22;4030;52.362;9.206;2023-08-30T05:23:43;17.30;77.20
7970;DHT22;4030;52.362;9.206;2023-08-30T05:26:10;17.30;77.20
7970;DHT22;4030;52.362;9.206;2023-08-30T05:28:38;17.30;77.20
7970;DHT22;4030;52.362;9.206;2023-08-30T05:31:04;17.40;77.40
7970;DHT22;4030;52.362;9.206;2023-08-30T05:33:30;17.30;77.20
7970;DHT22;4030;52.362;9.206;2023-08-30T05:35:55;17.40;77.40
7970;DHT22;4030;52.362;9.206;2023-08-30T05:38:21;17.40;77.40
7970;DHT22;4030;52.362;9.206;2023-08-30T05:40:47;17.40;77.40
7970;DHT22;4030;52.362;9.206;2023-08-30T05:43:12;17.40;77.40
7970;DHT22;4030;52.362;9.206;2023-08-30T05:45:38;17.50;77.40
7970;DHT22;4030;52.362;9.206;2023-08-30T05:48:05;17.50;77.40
7970;DHT22;4030;52.362;9.206;2023-08-30T05:50:31;17.50;77.40
7970;DHT22;4030;52.362;9.206;2023-08-30T05:52:57;17.60;77.50
7970;DHT22;4030;52.362;9.206;2023-08-30T05:55:22;17.60;77.50
7970;DHT22;4030;52.362;9.206;2023-08-30T05:57:48;17.60;77.50
7970;DHT22;4030;52.362;9.206;2023-08-30T06:00:14;17.60;77.60
7970;DHT22;4030;52.362;9.206;2023-08-30T06:02:41;17.60;77.60
7970;DHT22;4030;52.362;9.206;2023-08-30T06:05:07;17.80;77.80
7970;DHT22;4030;52.362;9.206;2023-08-30T06:07:33;17.70;77.70
7970;DHT22;4030;52.362;9.206;2023-08-30T06:09:59;17.80;77.90
7970;DHT22;4030;52.362;9.206;2023-08-30T06:12:24;17.80;77.80
7970;DHT22;4030;52.362;9.206;2023-08-30T06:14:51;17.80;77.80
7970;DHT22;4030;52.362;9.206;2023-08-30T06:17:18;17.80;77.70
7970;DHT22;4030;52.362;9.206;2023-08-30T06:19:47;17.90;77.80
7970;DHT22;4030;52.362;9.206;2023-08-30T06:22:13;17.90;77.70
7970;DHT22;4030;52.362;9.206;2023-08-30T06:24:39;18.10;77.90
7970;DHT22;4030;52.362;9.206;2023-08-30T06:27:05;18.00;77.80
7970;DHT22;4030;52.362;9.206;2023-08-30T06:29:30;18.00;77.70
7970;DHT22;4030;52.362;9.206;2023-08-30T06:31:56;18.10;77.90
7970;DHT22;4030;52.362;9.206;2023-08-30T06:34:22;18.10;77.80
7970;DHT22;4030;52.362;9.206;2023-08-30T06:36:48;18.10;77.70
7970;DHT22;4030;52.362;9.206;2023-08-30T06:39:14;18.20;77.80
7970;DHT22;4030;52.362;9.206;2023-08-30T06:41:39;18.20;77.80
7970;DHT22;4030;52.362;9.206;2023-08-30T06:44:05;18.20;77.80
7970;DHT22;4030;52.362;9.206;2023-08-30T06:46:31;18.30;78.00
7970;DHT22;4030;52.362;9.206;2023-08-30T06:48:57;18.30;77.90
7970;DHT22;4030;52.362;9.206;2023-08-30T06:51:22;18.40;78.00
7970;DHT22;4030;52.362;9.206;2023-08-30T06:53:48;18.50;78.10
7970;DHT22;4030;52.362;9.206;2023-08-30T06:56:14;18.50;78.10
7970;DHT22;4030;52.362;9.206;2023-08-30T06:58:39;18.50;78.00
7970;DHT22;4030;52.362;9.206;2023-08-30T07:01:05;18.50;78.00
7970;DHT22;4030;52.362;9.206;2023-08-30T07:03:31;18.60;78.20
7970;DHT22;4030;52.362;9.206;2023-08-30T07:05:56;18.60;78.20
7970;DHT22;4030;52.362;9.206;2023-08-30T07:08:22;18.70;78.30
7970;DHT22;4030;52.362;9.206;2023-08-30T07:10:48;18.70;78.30
7970;DHT22;4030;52.362;9.206;2023-08-30T07:13:14;18.80;78.60
7970;DHT22;4030;52.362;9.206;2023-08-30T07:15:40;18.90;78.80
7970;DHT22;4030;52.362;9.206;2023-08-30T07:18:07;19.00;78.90
7970;DHT22;4030;52.362;9.206;2023-08-30T07:20:33;19.10;79.00
7970;DHT22;4030;52.362;9.206;2023-08-30T07:23:00;19.20;79.00
7970;DHT22;4030;52.362;9.206;2023-08-30T07:25:26;19.20;78.70
7970;DHT22;4030;52.362;9.206;2023-08-30T07:27:52;19.40;78.90
7970;DHT22;4030;52.362;9.206;2023-08-30T07:30:17;19.30;78.70
7970;DHT22;4030;52.362;9.206;2023-08-30T07:32:43;19.40;78.70
7970;DHT22;4030;52.362;9.206;2023-08-30T07:35:09;19.50;78.90
7970;DHT22;4030;52.362;9.206;2023-08-30T07:37:35;19.60;78.90
7970;DHT22;4030;52.362;9.206;2023-08-30T07:40:01;19.70;78.90
7970;DHT22;4030;52.362;9.206;2023-08-30T07:42:30;19.80;78.80
7970;DHT22;4030;52.362;9.206;2023-08-30T07:44:55;19.90;78.70
7970;DHT22;4030;52.362;9.206;2023-08-30T07:47:21;20.00;78.60
7970;DHT22;4030;52.362;9.206;2023-08-30T07:49:47;20.10;79.60
7970;DHT22;4030;52.362;9.206;2023-08-30T07:52:12;20.20;81.90
7970;DHT22;4030;52.362;9.206;2023-08-30T07:54:39;20.40;83.20
7970;DHT22;4030;52.362;9.206;2023-08-30T07:57:05;20.50;83.40
7970;DHT22;4030;52.362;9.206;2023-08-30T07:59:36;20.70;83.40
7970;DHT22;4030;52.362;9.206;2023-08-30T08:02:02;20.80;82.80
7970;DHT22;4030;52.362;9.206;2023-08-30T08:04:29;20.90;82.70
7970;DHT22;4030;52.362;9.206;2023-08-30T08:06:55;20.90;83.00
7970;DHT22;4030;52.362;9.206;2023-08-30T08:09:20;21.00;82.90
7970;DHT22;4030;52.362;9.206;2023-08-30T08:11:50;21.00;82.70
7970;DHT22;4030;52.362;9.206;2023-08-30T08:14:15;21.10;82.80
7970;DHT22;4030;52.362;9.206;2023-08-30T08:16:41;21.10;81.20
7970;DHT22;4030;52.362;9.206;2023-08-30T08:19:07;21.00;78.90
7970;DHT22;4030;52.362;9.206;2023-08-30T08:21:34;21.00;78.90
7970;DHT22;4030;52.362;9.206;2023-08-30T08:24:00;20.90;77.90
7970;DHT22;4030;52.362;9.206;2023-08-30T08:26:26;20.80;77.80
7970;DHT22;4030;52.362;9.206;2023-08-30T08:28:53;20.70;78.50
7970;DHT22;4030;52.362;9.206;2023-08-30T08:31:19;20.60;78.70
7970;DHT22;4030;52.362;9.206;2023-08-30T08:33:45;20.60;79.00
7970;DHT22;4030;52.362;9.206;2023-08-30T08:36:10;20.50;78.90
7970;DHT22;4030;52.362;9.206;2023-08-30T08:38:36;20.50;77.80
7970;DHT22;4030;52.362;9.206;2023-08-30T08:41:08;20.50;77.80
7970;DHT22;4030;52.362;9.206;2023-08-30T08:43:38;20.40;77.80
7970;DHT22;4030;52.362;9.206;2023-08-30T08:46:06;20.50;77.70
7970;DHT22;4030;52.362;9.206;2023-08-30T08:48:35;20.60;77.80
7970;DHT22;4030;52.362;9.206;2023-08-30T08:51:05;20.60;78.00
7970;DHT22;4030;52.362;9.206;2023-08-30T08:53:32;20.70;77.80
7970;DHT22;4030;52.362;9.206;2023-08-30T08:55:58;20.80;77.50
7970;DHT22;4030;52.362;9.206;2023-08-30T08:58:25;20.90;77.20
7970;DHT22;4030;52.362;9.206;2023-08-30T09:00:52;20.90;77.20
7970;DHT22;4030;52.362;9.206;2023-08-30T09:03:18;21.00;76.70
7970;DHT22;4030;52.362;9.206;2023-08-30T09:05:45;21.10;76.80
7970;DHT22;4030;52.362;9.206;2023-08-30T09:08:12;21.10;77.50
7970;DHT22;4030;52.362;9.206;2023-08-30T09:10:41;21.30;78.60
7970;DHT22;4030;52.362;9.206;2023-08-30T09:13:06;21.40;77.70
7970;DHT22;4030;52.362;9.206;2023-08-30T09:15:33;21.50;78.20
7970;DHT22;4030;52.362;9.206;2023-08-30T09:17:59;21.60;77.50
7970;DHT22;4030;52.362;9.206;2023-08-30T09:20:25;21.70;77.20
7970;DHT22;4030;52.362;9.206;2023-08-30T09:22:51;21.80;76.20
7970;DHT22;4030;52.362;9.206;2023-08-30T09:25:27;21.90;75.70
7970;DHT22;4030;52.362;9.206;2023-08-30T09:27:58;22.00;75.00
7970;DHT22;4030;52.362;9.206;2023-08-30T09:30:27;22.10;74.00
7970;DHT22;4030;52.362;9.206;2023-08-30T09:32:53;22.20;72.90
7970;DHT22;4030;52.362;9.206;2023-08-30T09:35:18;22.30;72.40
7970;DHT22;4030;52.362;9.206;2023-08-30T09:37:45;22.30;71.60
7970;DHT22;4030;52.362;9.206;2023-08-30T09:40:11;22.40;72.10
7970;DHT22;4030;52.362;9.206;2023-08-30T09:42:42;22.30;72.20
7970;DHT22;4030;52.362;9.206;2023-08-30T09:45:19;22.30;70.50
7970;DHT22;4030;52.362;9.206;2023-08-30T09:47:50;22.30;71.20
7970;DHT22;4030;52.362;9.206;2023-08-30T09:50:20;22.30;72.10
7970;DHT22;4030;52.362;9.206;2023-08-30T09:52:50;22.30;72.00
7970;DHT22;4030;52.362;9.206;2023-08-30T09:55:19;22.30;71.30
7970;DHT22;4030;52.362;9.206;2023-08-30T09:57:48;22.30;70.90
7970;DHT22;4030;52.362;9.206;2023-08-30T10:00:15;22.30;70.90
7970;DHT22;4030;52.362;9.206;2023-08-30T10:02:42;22.40;71.30
7970;DHT22;4030;52.362;9.206;2023-08-30T10:05:10;22.60;71.20
7970;DHT22;4030;52.362;9.206;2023-08-30T10:07:37;22.80;70.80
7970;DHT22;4030;52.362;9.206;2023-08-30T10:10:04;23.00;69.30
7970;DHT22;4030;52.362;9.206;2023-08-30T10:12:34;23.10;67.00
7970;DHT22;4030;52.362;9.206;2023-08-30T10:15:00;23.30;66.60
7970;DHT22;4030;52.362;9.206;2023-08-30T10:17:32;23.40;65.60
7970;DHT22;4030;52.362;9.206;2023-08-30T10:20:04;23.50;64.30
7970;DHT22;4030;52.362;9.206;2023-08-30T10:22:32;23.60;63.70
7970;DHT22;4030;52.362;9.206;2023-08-30T10:25:03;23.70;63.30
7970;DHT22;4030;52.362;9.206;2023-08-30T10:27:32;23.80;62.70
7970;DHT22;4030;52.362;9.206;2023-08-30T10:30:01;23.90;63.50
7970;DHT22;4030;52.362;9.206;2023-08-30T10:32:28;24.10;63.90
7970;DHT22;4030;52.362;9.206;2023-08-30T10:34:54;24.30;63.30
7970;DHT22;4030;52.362;9.206;2023-08-30T10:37:25;24.40;62.10
7970;DHT22;4030;52.362;9.206;2023-08-30T10:39:59;24.60;61.60
7970;DHT22;4030;52.362;9.206;2023-08-30T10:42:28;24.70;60.60
7970;DHT22;4030;52.362;9.206;2023-08-30T10:44:59;24.70;60.70
7970;DHT22;4030;52.362;9.206;2023-08-30T10:47:27;24.80;60.60
7970;DHT22;4030;52.362;9.206;2023-08-30T10:50:00;24.90;60.30
7970;DHT22;4030;52.362;9.206;2023-08-30T10:52:27;25.00;59.90
7970;DHT22;4030;52.362;9.206;2023-08-30T10:55:09;24.80;58.80
7970;DHT22;4030;52.362;9.206;2023-08-30T10:57:37;24.60;58.00
7970;DHT22;4030;52.362;9.206;2023-08-30T11:00:05;24.50;58.30
7970;DHT22;4030;52.362;9.206;2023-08-30T11:02:44;24.30;58.50
7970;DHT22;4030;52.362;9.206;2023-08-30T11:05:18;24.10;58.80
7970;DHT22;4030;52.362;9.206;2023-08-30T11:07:46;23.90;58.40
7970;DHT22;4030;52.362;9.206;2023-08-30T11:10:12;23.70;58.30
7970;DHT22;4030;52.362;9.206;2023-08-30T11:12:42;23.70;59.80
7970;DHT22;4030;52.362;9.206;2023-08-30T11:15:10;23.70;61.00
7970;DHT22;4030;52.362;9.206;2023-08-30T11:17:36;23.80;63.00
7970;DHT22;4030;52.362;9.206;2023-08-30T11:20:08;23.90;62.00
7970;DHT22;4030;52.362;9.206;2023-08-30T11:22:40;24.10;61.40
7970;DHT22;4030;52.362;9.206;2023-08-30T11:25:08;24.20;59.70
7970;DHT22;4030;52.362;9.206;2023-08-30T11:27:35;24.20;58.90
7970;DHT22;4030;52.362;9.206;2023-08-30T11:30:01;24.30;59.70
7970;DHT22;4030;52.362;9.206;2023-08-30T11:32:38;24.70;59.80
7970;DHT22;4030;52.362;9.206;2023-08-30T11:35:05;25.10;59.50
7970;DHT22;4030;52.362;9.206;2023-08-30T11:37:32;25.30;59.30
7970;DHT22;4030;52.362;9.206;2023-08-30T11:39:59;25.50;59.10
7970;DHT22;4030;52.362;9.206;2023-08-30T11:42:25;25.70;58.80
7970;DHT22;4030;52.362;9.206;2023-08-30T11:44:51;25.90;57.60
7970;DHT22;4030;52.362;9.206;2023-08-30T11:47:27;26.20;57.20
7970;DHT22;4030;52.362;9.206;2023-08-30T11:49:55;26.40;56.60
7970;DHT22;4030;52.362;9.206;2023-08-30T11:52:21;26.70;56.10
7970;DHT22;4030;52.362;9.206;2023-08-30T11:54:49;26.90;55.50
7970;DHT22;4030;52.362;9.206;2023-08-30T11:57:15;27.10;54.70
7970;DHT22;4030;52.362;9.206;2023-08-30T11:59:41;27.10;54.30
7970;DHT22;4030;52.362;9.206;2023-08-30T12:02:07;27.20;53.80
7970;DHT22;4030;52.362;9.206;2023-08-30T12:04:42;27.20;53.30
7970;DHT22;4030;52.362;9.206;2023-08-30T12:07:20;27.30;52.60
7970;DHT22;4030;52.362;9.206;2023-08-30T12:09:46;27.50;52.10
7970;DHT22;4030;52.362;9.206;2023-08-30T12:12:12;27.70;51.70
7970;DHT22;4030;52.362;9.206;2023-08-30T12:14:38;27.90;51.20
7970;DHT22;4030;52.362;9.206;2023-08-30T12:17:04;28.00;50.70
7970;DHT22;4030;52.362;9.206;2023-08-30T12:19:31;28.20;50.10
7970;DHT22;4030;52.362;9.206;2023-08-30T12:22:03;28.40;49.60
7970;DHT22;4030;52.362;9.206;2023-08-30T12:24:43;28.50;49.00
7970;DHT22;4030;52.362;9.206;2023-08-30T12:27:09;28.70;48.50
7970;DHT22;4030;52.362;9.206;2023-08-30T12:29:35;28.80;48.20
7970;DHT22;4030;52.362;9.206;2023-08-30T12:32:01;28.90;47.40
7970;DHT22;4030;52.362;9.206;2023-08-30T12:34:27;29.10;47.00
7970;DHT22;4030;52.362;9.206;2023-08-30T12:36:52;29.10;46.70
7970;DHT22;4030;52.362;9.206;2023-08-30T12:39:19;29.10;46.50
7970;DHT22;4030;52.362;9.206;2023-08-30T12:41:44;29.10;46.10
7970;DHT22;4030;52.362;9.206;2023-08-30T12:44:10;29.20;45.90
7970;DHT22;4030;52.362;9.206;2023-08-30T12:46:36;29.30;45.90
7970;DHT22;4030;52.362;9.206;2023-08-30T12:49:02;29.10;45.80
7970;DHT22;4030;52.362;9.206;2023-08-30T12:51:27;29.00;45.50
7970;DHT22;4030;52.362;9.206;2023-08-30T12:53:54;28.80;45.70
7970;DHT22;4030;52.362;9.206;2023-08-30T12:56:20;28.60;46.00
7970;DHT22;4030;52.362;9.206;2023-08-30T12:58:45;28.40;46.10
7970;DHT22;4030;52.362;9.206;2023-08-30T13:01:11;28.20;46.30
7970;DHT22;4030;52.362;9.206;2023-08-30T13:03:37;28.00;46.60
7970;DHT22;4030;52.362;9.206;2023-08-30T13:06:02;27.70;46.70
7970;DHT22;4030;52.362;9.206;2023-08-30T13:08:29;27.60;46.90
7970;DHT22;4030;52.362;9.206;2023-08-30T13:10:55;27.40;46.90
7970;DHT22;4030;52.362;9.206;2023-08-30T13:13:21;27.30;47.20
7970;DHT22;4030;52.362;9.206;2023-08-30T13:15:47;27.10;47.20
7970;DHT22;4030;52.362;9.206;2023-08-30T13:18:14;27.00;47.30
7970;DHT22;4030;52.362;9.206;2023-08-30T13:20:41;26.90;47.50
7970;DHT22;4030;52.362;9.206;2023-08-30T13:23:07;26.80;47.80
7970;DHT22;4030;52.362;9.206;2023-08-30T13:25:33;26.70;48.20
7970;DHT22;4030;52.362;9.206;2023-08-30T13:27:58;26.50;48.00
7970;DHT22;4030;52.362;9.206;2023-08-30T13:30:24;26.40;48.00
7970;DHT22;4030;52.362;9.206;2023-08-30T13:32:50;26.30;48.70
7970;DHT22;4030;52.362;9.206;2023-08-30T13:35:15;26.10;48.20
7970;DHT22;4030;52.362;9.206;2023-08-30T13:37:41;26.00;48.70
7970;DHT22;4030;52.362;9.206;2023-08-30T13:40:07;25.80;49.10
7970;DHT22;4030;52.362;9.206;2023-08-30T13:42:33;25.70;49.40
7970;DHT22;4030;52.362;9.206;2023-08-30T13:44:59;25.50;49.50
7970;DHT22;4030;52.362;9.206;2023-08-30T13:47:25;25.40;49.90
7970;DHT22;4030;52.362;9.206;2023-08-30T13:49:51;25.30;50.10
7970;DHT22;4030;52.362;9.206;2023-08-30T13:52:16;25.30;50.40
7970;DHT22;4030;52.362;9.206;2023-08-30T13:54:43;25.10;50.70
7970;DHT22;4030;52.362;9.206;2023-08-30T13:57:09;25.00;51.00
7970;DHT22;4030;52.362;9.206;2023-08-30T13:59:34;25.00;51.40
7970;DHT22;4030;52.362;9.206;2023-08-30T14:02:02;24.90;51.70
7970;DHT22;4030;52.362;9.206;2023-08-30T14:04:29;24.90;52.30
7970;DHT22;4030;52.362;9.206;2023-08-30T14:06:57;24.90;52.70
7970;DHT22;4030;52.362;9.206;2023-08-30T14:09:23;24.80;52.90
7970;DHT22;4030;52.362;9.206;2023-08-30T14:11:49;24.80;52.90
7970;DHT22;4030;52.362;9.206;2023-08-30T14:14:15;24.80;52.90
7970;DHT22;4030;52.362;9.206;2023-08-30T14:16:41;24.70;52.90
7970;DHT22;4030;52.362;9.206;2023-08-30T14:19:06;24.70;52.90
7970;DHT22;4030;52.362;9.206;2023-08-30T14:21:32;24.60;53.00
7970;DHT22;4030;52.362;9.206;2023-08-30T14:23:58;24.60;53.20
7970;DHT22;4030;52.362;9.206;2023-08-30T14:26:27;24.50;53.10
7970;DHT22;4030;52.362;9.206;2023-08-30T14:28:53;24.40;53.10
7970;DHT22;4030;52.362;9.206;2023-08-30T14:31:19;24.40;53.20
7970;DHT22;4030;52.362;9.206;2023-08-30T14:33:45;22.30;51.50
7970;DHT22;4030;52.362;9.206;2023-08-30T14:36:10;24.30;53.20
7970;DHT22;4030;52.362;9.206;2023-08-30T14:38:36;24.30;53.40
7970;DHT22;4030;52.362;9.206;2023-08-30T14:41:03;24.20;53.60
7970;DHT22;4030;52.362;9.206;2023-08-30T14:43:29;24.20;53.90
7970;DHT22;4030;52.362;9.206;2023-08-30T14:46:02;24.10;54.10
7970;DHT22;4030;52.362;9.206;2023-08-30T14:48:29;24.00;54.20
7970;DHT22;4030;52.362;9.206;2023-08-30T14:50:57;24.00;54.60
7970;DHT22;4030;52.362;9.206;2023-08-30T14:53:23;23.90;54.80
7970;DHT22;4030;52.362;9.206;2023-08-30T14:55:49;23.90;55.20
7970;DHT22;4030;52.362;9.206;2023-08-30T14:58:14;23.80;55.40
7970;DHT22;4030;52.362;9.206;2023-08-30T15:00:40;23.80;55.80
7970;DHT22;4030;52.362;9.206;2023-08-30T15:03:06;23.80;56.10
7970;DHT22;4030;52.362;9.206;2023-08-30T15:05:32;23.70;56.50
7970;DHT22;4030;52.362;9.206;2023-08-30T15:07:57;23.70;57.00
7970;DHT22;4030;52.362;9.206;2023-08-30T15:10:23;23.70;57.50
7970;DHT22;4030;52.362;9.206;2023-08-30T15:12:50;23.60;57.80
7970;DHT22;4030;52.362;9.206;2023-08-30T15:15:15;23.60;58.30
7970;DHT22;4030;52.362;9.206;2023-08-30T15:17:41;23.50;58.70
7970;DHT22;4030;52.362;9.206;2023-08-30T15:20:07;23.40;59.10
7970;DHT22;4030;52.362;9.206;2023-08-30T15:22:34;23.30;59.50
7970;DHT22;4030;52.362;9.206;2023-08-30T15:25:00;23.20;59.90
7970;DHT22;4030;52.362;9.206;2023-08-30T15:27:28;23.20;60.40
7970;DHT22;4030;52.362;9.206;2023-08-30T15:29:54;23.10;61.00
7970;DHT22;4030;52.362;9.206;2023-08-30T15:32:22;23.00;61.50
7970;DHT22;4030;52.362;9.206;2023-08-30T15:34:51;23.00;61.90
7970;DHT22;4030;52.362;9.206;2023-08-30T15:37:17;22.90;62.50
7970;DHT22;4030;52.362;9.206;2023-08-30T15:39:42;22.80;63.00
7970;DHT22;4030;52.362;9.206;2023-08-30T15:42:08;22.70;63.40
7970;DHT22;4030;52.362;9.206;2023-08-30T15:44:34;22.70;63.90
7970;DHT22;4030;52.362;9.206;2023-08-30T15:47:00;22.70;64.20
7970;DHT22;4030;52.362;9.206;2023-08-30T15:49:26;22.00;63.90
7970;DHT22;4030;52.362;9.206;2023-08-30T15:51:51;22.60;65.20
7970;DHT22;4030;52.362;9.206;2023-08-30T15:54:17;22.50;65.40
7970;DHT22;4030;52.362;9.206;2023-08-30T15:56:43;22.40;65.70
7970;DHT22;4030;52.362;9.206;2023-08-30T15:59:10;22.40;66.10
7970;DHT22;4030;52.362;9.206;2023-08-30T16:01:37;22.30;66.40
7970;DHT22;4030;52.362;9.206;2023-08-30T16:04:04;22.20;66.80
7970;DHT22;4030;52.362;9.206;2023-08-30T16:06:30;22.10;66.90